createdAt,value
2018-11-14T00:02:04.051Z,6.23
2018-11-14T00:04:34.814Z,6.30
2018-11-14T00:07:08.174Z,6.10
2018-11-14T00:09:38.805Z,6.33
2018-11-14T00:14:45.838Z,6.00
2018-11-14T00:17:28.539Z,6.67
2018-11-14T00:19:57.031Z,6.00
2018-11-14T00:22:28.251Z,5.27
2018-11-14T00:27:32.368Z,5.67
2018-11-14T00:30:01.308Z,6.07
2018-11-14T00:32:31.718Z,5.80
2018-11-14T00:35:13.448Z,5.53
2018-11-14T00:37:42.326Z,5.40
2018-11-14T00:40:13.920Z,6.13
2018-11-14T00:42:56.419Z,5.60
2018-11-14T00:50:26.695Z,5.87
2018-11-14T00:52:56.265Z,5.83
2018-11-14T00:55:26.223Z,6.03
2018-11-14T00:57:54.751Z,5.47
2018-11-14T01:00:26.287Z,5.20
2018-11-14T01:02:55.518Z,5.20
2018-11-14T01:05:26.923Z,6.33
2018-11-14T01:07:56.210Z,5.10
2018-11-14T01:10:24.734Z,6.13
2018-11-14T01:12:53.641Z,5.47
2018-11-14T01:15:31.843Z,6.73
2018-11-14T01:18:00.962Z,5.80
2018-11-14T01:20:34.084Z,6.30
2018-11-14T01:23:02.622Z,5.33
2018-11-14T01:25:31.498Z,6.97
2018-11-14T01:28:01.061Z,6.07
2018-11-14T01:30:29.992Z,5.43
2018-11-14T01:33:00.141Z,5.77
2018-11-14T01:35:37.656Z,6.17
2018-11-14T01:38:08.616Z,6.03
2018-11-14T01:43:23.052Z,6.23
2018-11-14T01:46:03.045Z,6.90
2018-11-14T01:48:32.800Z,5.93
2018-11-14T01:51:01.328Z,6.23
2018-11-14T01:53:31.016Z,6.23
2018-11-14T01:56:11.500Z,7.07
2018-11-14T01:58:41.332Z,6.57
2018-11-14T02:01:13.346Z,6.30
2018-11-14T02:03:43.581Z,5.63
2018-11-14T02:06:12.598Z,5.67
2018-11-14T02:08:50.073Z,6.70
2018-11-14T02:11:22.500Z,5.53
2018-11-14T02:14:01.450Z,5.30
2018-11-14T02:16:31.440Z,6.27
2018-11-14T02:21:38.779Z,5.73
2018-11-14T02:24:13.889Z,5.67
2018-11-14T02:26:42.401Z,7.20
2018-11-14T02:29:12.598Z,6.97
2018-11-14T02:31:44.372Z,6.20
2018-11-14T02:34:12.907Z,6.83
2018-11-14T02:36:44.440Z,6.60
2018-11-14T02:39:14.391Z,6.90
2018-11-14T02:41:43.047Z,5.73
2018-11-14T02:44:14.277Z,6.10
2018-11-14T02:46:44.654Z,6.43
2018-11-14T02:49:13.166Z,7.10
2018-11-14T02:51:47.661Z,6.67
2018-11-14T02:54:20.544Z,6.63
2018-11-14T02:56:49.377Z,7.50
2018-11-14T02:59:21.607Z,7.20
2018-11-14T03:01:51.011Z,7.57
2018-11-14T03:04:19.535Z,7.63
2018-11-14T03:06:48.110Z,6.77
2018-11-14T03:09:27.784Z,6.50
2018-11-14T03:11:58.927Z,7.00
2018-11-14T03:14:29.533Z,6.50
2018-11-14T03:19:32.634Z,6.87
2018-11-14T03:22:01.725Z,7.23
2018-11-14T03:24:30.380Z,7.00
2018-11-14T03:26:58.962Z,6.50
2018-11-14T03:29:28.235Z,5.90
2018-11-14T03:31:56.781Z,6.83
2018-11-14T03:34:25.341Z,6.57
2018-11-14T03:36:55.345Z,7.50
2018-11-14T03:39:24.010Z,6.53
2018-11-14T03:42:00.782Z,6.83
2018-11-14T03:44:37.978Z,6.90
2018-11-14T03:47:06.545Z,6.53
2018-11-14T03:49:35.949Z,6.47
2018-11-14T03:52:06.460Z,6.90
2018-11-14T03:54:36.128Z,7.10
2018-11-14T03:57:04.670Z,6.53
2018-11-14T03:59:33.633Z,7.70
2018-11-14T04:02:08.118Z,6.30
2018-11-14T04:04:36.666Z,6.87
2018-11-14T04:07:05.633Z,6.37
2018-11-14T04:09:34.436Z,6.53
2018-11-14T04:12:02.972Z,6.83
2018-11-14T04:17:13.165Z,6.87
2018-11-14T04:19:44.132Z,7.50
2018-11-14T04:22:17.398Z,6.97
2018-11-14T04:24:54.060Z,6.80
2018-11-14T04:27:28.900Z,7.40
2018-11-14T04:30:00.135Z,7.13
2018-11-14T04:32:28.652Z,8.37
2018-11-14T04:34:57.190Z,8.40
2018-11-14T04:37:28.347Z,8.07
2018-11-14T04:40:00.990Z,7.60
2018-11-14T04:42:35.936Z,7.57
2018-11-14T04:45:05.133Z,7.20
2018-11-14T04:47:33.779Z,7.67
2018-11-14T04:50:03.184Z,7.60
2018-11-14T04:52:36.452Z,7.17
2018-11-14T04:55:05.436Z,7.67
2018-11-14T04:57:34.001Z,7.67
2018-11-14T05:00:02.561Z,7.30
2018-11-14T05:02:31.123Z,7.00
2018-11-14T05:05:00.248Z,8.17
2018-11-14T05:07:34.696Z,7.67
2018-11-14T05:10:17.737Z,8.00
2018-11-14T05:12:49.998Z,6.73
2018-11-14T05:15:19.835Z,6.80
2018-11-14T05:20:31.920Z,7.63
2018-11-14T05:23:06.670Z,8.47
2018-11-14T05:25:37.403Z,8.07
2018-11-14T05:28:08.125Z,6.53
2018-11-14T05:33:15.314Z,7.77
2018-11-14T05:35:43.837Z,8.03
2018-11-14T05:38:13.597Z,7.30
2018-11-14T05:40:47.356Z,7.27
2018-11-14T05:43:17.694Z,8.60
2018-11-14T05:45:50.879Z,7.30
2018-11-14T05:48:20.285Z,7.87
2018-11-14T05:50:48.858Z,7.70
2018-11-14T05:53:21.052Z,7.33
2018-11-14T05:58:26.144Z,6.87
2018-11-14T06:00:59.511Z,7.60
2018-11-14T06:03:28.954Z,7.40
2018-11-14T06:05:57.954Z,7.33
2018-11-14T06:08:34.522Z,7.47
2018-11-14T06:11:04.909Z,7.87
2018-11-14T06:13:34.130Z,7.40
2018-11-14T06:16:09.366Z,7.90
2018-11-14T06:18:43.504Z,8.20
2018-11-14T06:21:13.040Z,8.07
2018-11-14T06:23:42.504Z,8.00
2018-11-14T06:28:45.069Z,8.77
2018-11-14T06:31:17.761Z,8.87
2018-11-14T06:33:49.153Z,7.53
2018-11-14T06:36:22.912Z,8.07
2018-11-14T06:38:51.830Z,8.27
2018-11-14T06:41:23.552Z,8.10
2018-11-14T06:43:52.154Z,9.20
2018-11-14T06:46:20.709Z,8.53
2018-11-14T06:48:51.400Z,9.27
2018-11-14T06:53:59.043Z,8.97
2018-11-14T06:56:27.895Z,8.97
2018-11-14T06:58:56.487Z,9.40
2018-11-14T07:01:25.122Z,8.50
2018-11-14T07:04:03.805Z,9.27
2018-11-14T07:06:32.319Z,9.43
2018-11-14T07:09:01.816Z,12.25
2018-11-14T07:11:30.362Z,9.67
2018-11-14T07:13:58.878Z,8.93
2018-11-14T07:16:30.909Z,9.23
2018-11-14T07:18:59.504Z,10.57
2018-11-14T07:21:31.545Z,8.60
2018-11-14T07:24:00.113Z,9.30
2018-11-14T07:26:29.428Z,8.70
2018-11-14T07:28:57.924Z,9.50
2018-11-14T07:31:49.367Z,8.90
2018-11-14T07:34:19.216Z,8.90
2018-11-14T07:36:48.466Z,9.77
2018-11-14T07:39:16.998Z,7.77
2018-11-14T07:41:51.731Z,9.33
2018-11-14T07:44:20.846Z,8.70
2018-11-14T07:46:51.393Z,7.90
2018-11-14T07:49:20.454Z,8.30
2018-11-14T07:51:54.276Z,7.87
2018-11-14T07:54:26.359Z,9.20
2018-11-14T07:56:55.225Z,9.03
2018-11-14T08:02:03.149Z,8.83
2018-11-14T08:04:32.561Z,9.07
2018-11-14T08:07:11.376Z,9.83
2018-11-14T08:12:14.891Z,9.10
2018-11-14T08:14:49.096Z,8.50
2018-11-14T08:17:17.741Z,9.43
2018-11-14T08:19:54.096Z,8.43
2018-11-14T08:22:25.183Z,8.80
2018-11-14T08:25:12.375Z,8.77
2018-11-14T08:27:41.310Z,8.60
2018-11-14T08:30:11.497Z,9.33
2018-11-14T08:32:41.157Z,9.53
2018-11-14T08:35:12.494Z,9.77
2018-11-14T08:37:47.472Z,9.17
2018-11-14T08:40:16.019Z,9.27
2018-11-14T08:45:29.063Z,8.73
2018-11-14T08:47:59.305Z,9.80
2018-11-14T08:50:28.662Z,9.37
2018-11-14T08:53:01.236Z,9.13
2018-11-14T08:55:29.760Z,9.13
2018-11-14T08:57:58.315Z,9.10
2018-11-14T09:00:27.709Z,8.87
2018-11-14T09:02:57.145Z,8.77
2018-11-14T09:05:32.887Z,8.73
2018-11-14T09:08:09.669Z,9.57
2018-11-14T09:10:39.197Z,9.50
2018-11-14T09:13:12.164Z,8.57
2018-11-14T09:15:41.743Z,7.63
2018-11-14T09:18:17.266Z,8.50
2018-11-14T09:20:58.749Z,8.73
2018-11-14T09:23:38.355Z,8.13
2018-11-14T09:26:11.926Z,8.70
2018-11-14T09:28:40.490Z,7.70
2018-11-14T09:31:11.667Z,8.33
2018-11-14T09:33:49.570Z,8.73
2018-11-14T09:36:23.095Z,8.40
2018-11-14T09:38:54.206Z,8.50
2018-11-14T09:41:31.117Z,7.83
2018-11-14T09:43:59.606Z,8.23
2018-11-14T09:46:29.357Z,7.70
2018-11-14T09:49:02.217Z,8.00
2018-11-14T09:51:40.604Z,8.13
2018-11-14T09:54:09.101Z,8.07
2018-11-14T09:56:37.777Z,7.87
2018-11-14T09:59:06.291Z,7.80
2018-11-14T10:01:35.080Z,8.20
2018-11-14T10:04:03.583Z,7.60
2018-11-14T10:06:32.149Z,8.30
2018-11-14T10:09:00.676Z,7.93
2018-11-14T10:11:29.201Z,7.10
2018-11-14T10:13:57.693Z,8.90
2018-11-14T10:16:28.028Z,8.47
2018-11-14T10:18:59.389Z,7.63
2018-11-14T10:21:33.930Z,7.63
2018-11-14T10:24:05.190Z,7.63
2018-11-14T10:26:34.646Z,7.67
2018-11-14T10:29:04.385Z,8.13
2018-11-14T10:31:35.938Z,7.40
2018-11-14T10:34:09.719Z,7.27
2018-11-14T10:36:38.675Z,7.90
2018-11-14T10:41:48.699Z,6.97
2018-11-14T10:44:20.816Z,6.80
2018-11-14T10:46:49.300Z,6.80
2018-11-14T10:49:20.069Z,6.83
2018-11-14T10:52:04.285Z,5.97
2018-11-14T10:54:37.274Z,6.17
2018-11-14T10:57:05.944Z,6.50
2018-11-14T10:59:42.306Z,6.70
2018-11-14T11:02:23.174Z,6.20
2018-11-14T11:05:03.692Z,5.63
2018-11-14T11:07:43.767Z,5.70
2018-11-14T11:10:18.499Z,4.80
2018-11-14T11:12:52.207Z,5.93
2018-11-14T11:15:31.825Z,5.57
2018-11-14T11:18:03.423Z,5.67
2018-11-14T11:20:31.926Z,4.63
2018-11-14T11:23:02.804Z,5.10
2018-11-14T11:25:31.311Z,4.73
2018-11-14T11:28:02.262Z,4.70
2018-11-14T11:33:15.569Z,4.87
2018-11-14T11:35:44.523Z,4.77
2018-11-14T11:38:13.089Z,4.60
2018-11-14T11:40:41.579Z,4.90
2018-11-14T11:43:10.333Z,4.93
2018-11-14T11:45:38.886Z,4.63
2018-11-14T11:48:19.269Z,4.70
2018-11-14T11:50:53.730Z,4.80
2018-11-14T11:53:25.090Z,5.00
2018-11-14T11:56:07.862Z,4.37
2018-11-14T11:58:36.678Z,4.80
2018-11-14T12:01:06.835Z,5.93
2018-11-14T12:03:35.549Z,4.90
2018-11-14T12:06:04.991Z,4.50
2018-11-14T12:08:34.439Z,4.50
2018-11-14T12:11:09.224Z,4.93
2018-11-14T12:13:38.598Z,4.97
2018-11-14T12:16:07.116Z,4.80
2018-11-14T12:18:40.319Z,4.00
2018-11-14T12:21:10.401Z,5.07
2018-11-14T12:23:40.180Z,4.87
2018-11-14T12:26:08.698Z,4.30
2018-11-14T12:28:38.527Z,4.40
2018-11-14T12:31:09.375Z,4.10
2018-11-14T12:33:37.774Z,4.40
2018-11-14T12:36:07.028Z,4.27
2018-11-14T12:38:35.540Z,3.93
2018-11-14T12:41:04.667Z,4.67
2018-11-14T12:43:47.201Z,5.07
2018-11-14T12:46:17.599Z,4.90
2018-11-14T12:48:53.963Z,4.73
2018-11-14T12:51:28.993Z,4.10
2018-11-14T12:53:59.181Z,5.20
2018-11-14T12:56:38.289Z,4.13
2018-11-14T13:02:12.099Z,4.50
2018-11-14T13:04:42.738Z,4.97
2018-11-14T13:07:22.900Z,4.50
2018-11-14T13:09:53.818Z,4.20
2018-11-14T13:12:25.343Z,4.30
2018-11-14T13:15:02.162Z,4.50
2018-11-14T13:17:33.889Z,3.83
2018-11-14T13:20:03.018Z,4.07
2018-11-14T13:22:36.779Z,4.20
2018-11-14T13:25:08.028Z,4.00
2018-11-14T13:27:41.852Z,4.47
2018-11-14T13:30:22.210Z,4.10
2018-11-14T13:32:56.017Z,2.93
2018-11-14T13:35:25.252Z,3.63
2018-11-14T13:37:56.567Z,3.80
2018-11-14T13:40:28.415Z,3.43
2018-11-14T13:42:59.830Z,3.47
2018-11-14T13:45:34.069Z,3.50
2018-11-14T13:48:15.366Z,2.83
2018-11-14T13:50:45.153Z,3.27
2018-11-14T13:53:18.375Z,3.10
2018-11-14T13:55:46.958Z,2.93
2018-11-14T13:58:15.495Z,2.70
2018-11-14T14:00:44.002Z,3.27
2018-11-14T14:03:12.501Z,3.30
2018-11-14T14:05:48.490Z,3.67
2018-11-14T14:08:24.471Z,2.87
2018-11-14T14:10:52.972Z,3.00
2018-11-14T14:13:26.034Z,3.43
2018-11-14T14:15:56.299Z,3.00
2018-11-14T14:18:30.386Z,2.80
2018-11-14T14:21:06.509Z,3.43
2018-11-14T14:23:41.052Z,2.90
2018-11-14T14:26:20.001Z,2.70
2018-11-14T14:28:48.544Z,2.57
2018-11-14T14:31:17.046Z,2.47
2018-11-14T14:33:45.567Z,2.77
2018-11-14T14:36:14.061Z,2.47
2018-11-14T14:38:42.566Z,2.47
2018-11-14T14:41:11.111Z,2.57
2018-11-14T14:43:44.336Z,2.60
2018-11-14T14:46:13.047Z,2.00
2018-11-14T14:48:41.585Z,2.03
2018-11-14T14:51:10.102Z,2.10
2018-11-14T14:53:38.684Z,2.73
2018-11-14T14:56:07.254Z,2.57
2018-11-14T14:58:35.776Z,2.77
2018-11-14T15:01:04.294Z,2.70
2018-11-14T15:03:32.936Z,2.23
2018-11-14T15:06:02.106Z,2.33
2018-11-14T15:08:30.804Z,2.37
2018-11-14T15:10:59.959Z,2.60
2018-11-14T15:13:28.476Z,3.53
2018-11-14T15:15:57.058Z,3.27
2018-11-14T15:18:40.216Z,3.30
2018-11-14T15:21:09.523Z,3.40
2018-11-14T15:23:44.546Z,3.33
2018-11-14T15:26:13.893Z,3.10
2018-11-14T15:28:45.917Z,3.00
2018-11-14T15:31:14.466Z,3.73
2018-11-14T15:33:43.108Z,3.47
2018-11-14T15:36:11.727Z,3.60
2018-11-14T15:38:40.671Z,4.10
2018-11-14T15:41:10.653Z,3.30
2018-11-14T15:43:39.159Z,3.57
2018-11-14T15:46:16.065Z,3.40
2018-11-14T15:48:45.569Z,4.30
2018-11-14T15:51:14.565Z,4.05
2018-11-14T15:53:43.098Z,3.87
2018-11-14T15:56:11.710Z,3.70
2018-11-14T15:58:40.299Z,3.93
2018-11-14T16:01:08.856Z,4.20
2018-11-14T16:03:37.449Z,3.83
2018-11-14T16:06:06.169Z,3.83
2018-11-14T16:08:34.741Z,3.90
2018-11-14T16:11:03.411Z,3.93
2018-11-14T16:13:31.931Z,4.00
2018-11-14T16:16:00.758Z,3.97
2018-11-14T16:18:29.289Z,4.37
2018-11-14T16:20:57.820Z,4.33
2018-11-14T16:23:27.106Z,3.97
2018-11-14T16:25:55.602Z,3.90
2018-11-14T16:28:28.362Z,4.00
2018-11-14T16:31:00.055Z,4.10
2018-11-14T16:33:28.580Z,3.90
2018-11-14T16:35:57.304Z,4.07
2018-11-14T16:38:25.825Z,4.30
2018-11-14T16:40:54.355Z,4.30
2018-11-14T16:43:22.859Z,4.23
2018-11-14T16:45:51.362Z,4.10
2018-11-14T16:48:19.873Z,4.43
2018-11-14T16:50:48.464Z,4.83
2018-11-14T16:53:16.971Z,4.77
2018-11-14T16:55:45.553Z,4.67
2018-11-14T16:58:14.066Z,4.30
2018-11-14T17:00:42.568Z,4.23
2018-11-14T17:03:11.142Z,4.37
2018-11-14T17:05:39.735Z,5.00
2018-11-14T17:08:09.249Z,5.00
2018-11-14T17:10:37.811Z,3.97
2018-11-14T17:13:06.977Z,4.60
2018-11-14T17:15:35.519Z,4.90
2018-11-14T17:18:04.154Z,5.07
2018-11-14T17:20:32.685Z,4.50
2018-11-14T17:23:01.198Z,5.37
2018-11-14T17:25:29.729Z,5.03
2018-11-14T17:27:58.270Z,5.00
2018-11-14T17:30:27.769Z,4.93
2018-11-14T17:32:56.429Z,5.43
2018-11-14T17:35:24.957Z,5.92
2018-11-14T17:37:53.482Z,5.50
2018-11-14T17:40:25.435Z,4.93
2018-11-14T17:42:54.285Z,6.00
2018-11-14T17:45:24.565Z,6.37
2018-11-14T17:47:53.554Z,5.97
2018-11-14T17:50:23.035Z,5.80
2018-11-14T17:52:52.507Z,6.03
2018-11-14T17:55:21.983Z,6.60
2018-11-14T17:57:50.605Z,6.43
2018-11-14T18:00:22.283Z,6.13
2018-11-14T18:02:57.309Z,6.73
2018-11-14T18:05:27.583Z,7.03
2018-11-14T18:07:56.246Z,6.00
2018-11-14T18:10:26.082Z,5.87
2018-11-14T18:12:55.834Z,5.47
2018-11-14T18:15:24.419Z,6.47
2018-11-14T18:17:53.696Z,6.20
2018-11-14T18:20:23.683Z,6.50
2018-11-14T18:22:52.788Z,6.03
2018-11-14T18:25:29.034Z,7.10
2018-11-14T18:28:01.172Z,5.53
2018-11-14T18:30:31.260Z,5.73
2018-11-14T18:33:01.259Z,5.60
2018-11-14T18:35:29.891Z,6.27
2018-11-14T18:37:59.191Z,5.80
2018-11-14T18:40:31.881Z,5.60
2018-11-14T18:43:00.473Z,5.50
2018-11-14T18:45:30.335Z,5.53
2018-11-14T18:47:59.826Z,6.10
2018-11-14T18:50:28.681Z,6.63
2018-11-14T18:52:57.245Z,6.03
2018-11-14T18:55:27.220Z,6.00
2018-11-14T18:57:56.137Z,6.17
2018-11-14T19:00:25.969Z,5.97
2018-11-14T19:02:54.569Z,6.50
2018-11-14T19:05:23.149Z,6.30
2018-11-14T19:07:51.742Z,6.33
2018-11-14T19:10:21.618Z,6.37
2018-11-14T19:12:50.775Z,6.13
2018-11-14T19:15:29.487Z,6.77
2018-11-14T19:18:08.076Z,7.00
2018-11-14T19:20:36.819Z,6.90
2018-11-14T19:23:06.004Z,6.20
2018-11-14T19:25:36.703Z,7.53
2018-11-14T19:28:06.450Z,6.70
2018-11-14T19:30:36.279Z,8.20
2018-11-14T19:33:04.967Z,7.17
2018-11-14T19:35:33.617Z,7.30
2018-11-14T19:38:03.985Z,8.23
2018-11-14T19:40:33.987Z,8.13
2018-11-14T19:43:04.004Z,8.00
2018-11-14T19:45:42.173Z,7.20
2018-11-14T19:48:16.805Z,7.77
2018-11-14T19:50:48.234Z,8.20
2018-11-14T19:53:22.119Z,7.33
2018-11-14T19:55:55.714Z,7.23
2018-11-14T19:58:38.150Z,7.77
2018-11-14T20:01:07.619Z,7.77
2018-11-14T20:03:40.166Z,7.83
2018-11-14T20:06:10.907Z,7.60
2018-11-14T20:08:39.424Z,8.10
2018-11-14T20:11:08.881Z,7.73
2018-11-14T20:13:37.998Z,7.47
2018-11-14T20:16:06.543Z,7.97
2018-11-14T20:18:35.142Z,8.50
2018-11-14T20:21:03.790Z,8.60
2018-11-14T20:23:32.399Z,8.43
2018-11-14T20:26:00.943Z,9.00
2018-11-14T20:28:29.512Z,9.10
2018-11-14T20:30:58.104Z,9.40
2018-11-14T20:33:26.669Z,9.63
2018-11-14T20:35:55.257Z,9.97
2018-11-14T20:38:23.810Z,9.10
2018-11-14T20:40:52.325Z,10.50
2018-11-14T20:43:21.253Z,9.37
2018-11-14T20:45:49.799Z,10.00
2018-11-14T20:48:18.434Z,10.63
2018-11-14T20:50:46.999Z,10.60
2018-11-14T20:53:15.541Z,9.73
2018-11-14T20:55:44.385Z,11.00
2018-11-14T20:58:12.895Z,10.60
2018-11-14T21:00:41.417Z,10.37
2018-11-14T21:03:09.983Z,10.20
2018-11-14T21:05:38.582Z,9.87
2018-11-14T21:08:07.844Z,9.60
2018-11-14T21:10:40.666Z,10.40
2018-11-14T21:13:09.189Z,10.33
2018-11-14T21:15:39.043Z,10.17
2018-11-14T21:18:08.087Z,10.87
2018-11-14T21:20:36.624Z,10.83
2018-11-14T21:23:05.439Z,10.17
2018-11-14T21:25:33.874Z,9.67
2018-11-14T21:28:02.452Z,10.70
2018-11-14T21:30:31.343Z,10.43
2018-11-14T21:32:59.871Z,10.50
2018-11-14T21:35:30.280Z,10.30
2018-11-14T21:38:00.430Z,9.87
2018-11-14T21:40:28.966Z,10.03
2018-11-14T21:42:57.516Z,10.43
2018-11-14T21:45:27.519Z,10.23
2018-11-14T21:48:01.258Z,10.87
2018-11-14T21:50:30.461Z,9.80
2018-11-14T21:52:59.010Z,9.97
2018-11-14T21:55:27.537Z,9.77
2018-11-14T21:57:56.077Z,9.40
2018-11-14T22:00:26.735Z,9.30
2018-11-14T22:02:56.029Z,9.57
2018-11-14T22:05:35.760Z,10.27
2018-11-14T22:08:04.327Z,9.30
2018-11-14T22:10:33.047Z,9.87
2018-11-14T22:13:01.554Z,9.87
2018-11-14T22:15:30.727Z,10.27
2018-11-14T22:17:59.282Z,10.50
2018-11-14T22:20:29.178Z,9.67
2018-11-14T22:23:08.464Z,10.23
2018-11-14T22:28:21.580Z,10.03
2018-11-14T22:30:50.105Z,10.37
2018-11-14T22:33:18.932Z,9.30
2018-11-14T22:35:47.473Z,9.90
2018-11-14T22:38:15.990Z,9.37
2018-11-14T22:40:44.627Z,9.27
2018-11-14T22:43:13.123Z,10.13
2018-11-14T22:45:42.221Z,10.03
2018-11-14T22:48:25.859Z,9.43
2018-11-14T22:51:01.688Z,9.30
2018-11-14T22:53:38.590Z,9.60
2018-11-14T22:56:17.682Z,9.57
2018-11-14T22:58:56.412Z,9.50
2018-11-14T23:01:26.809Z,9.30
2018-11-14T23:03:56.353Z,9.93
2018-11-14T23:06:25.694Z,9.70
2018-11-14T23:08:59.310Z,9.10
2018-11-14T23:11:29.686Z,9.03
2018-11-14T23:13:58.960Z,9.70
2018-11-14T23:16:28.390Z,9.13
2018-11-14T23:19:00.204Z,10.50
2018-11-14T23:24:18.919Z,9.30
2018-11-14T23:26:47.454Z,9.33
2018-11-14T23:29:16.005Z,10.03
2018-11-14T23:31:44.556Z,10.33
2018-11-14T23:34:13.068Z,10.47
2018-11-14T23:36:41.582Z,8.90
2018-11-14T23:39:12.358Z,9.90
2018-11-14T23:41:40.898Z,10.00
2018-11-14T23:44:09.524Z,10.97
2018-11-14T23:46:38.028Z,10.43
2018-11-14T23:49:06.531Z,10.27
2018-11-14T23:51:35.048Z,10.10
2018-11-14T23:54:03.631Z,9.87
2018-11-14T23:56:32.146Z,9.47
2018-11-14T23:59:00.684Z,9.80
